Terminal Aerodrome Forecast
Issued by NWS

Home | Current Version | Previous Version | Text Only | Print | Product List | Glossary On
Versions: 1 2 3 4 5 6 7 8 9 10 11 12 13 14 15 16 17 18 19 20 21 22 23
000
FTUS45 KBOI 040530
TAFBKE
TAF
KBKE 040530Z 0406/0506 31009KT P6SM BKN100
     FM040700 30005KT P6SM VCSH BKN100
     FM041200 32007KT P6SM SCT100
     FM050000 31011KT P6SM VCSH BKN100 BKN200=

USA.gov is the U.S. government's official web portal to all federal, state and local government web resources and services.